Time;durP1;ratioP1;P1;durP2;ratioP2;P2;SDS_P1;SDS_P2;PMS_P1;PMS_P2;Temp;Humidity;BMP_temperature;BMP_pressure;BME280_temperature;BME280_humidity;BME280_pressure;Samples;Min_cycle;Max_cycle;Signal;HPM_P1;HPM_P2
2021/01/29 00:00:52;;;;;;;;;;;23.80;54.80;;;;;;6240929;23;19918;-67
2021/01/29 00:03:19;;;;;;;;;;;23.70;54.90;;;;;;6242086;23;19900;-67
2021/01/29 00:05:55;;;;;;;;;;;23.70;54.90;;;;;;6241049;23;19902;-67
2021/01/29 00:08:22;;;;;;;;;;;23.70;55.00;;;;;;6242368;23;19899;-67
2021/01/29 00:10:49;;;;;;;;;;;23.70;55.10;;;;;;6239899;23;20315;-67
2021/01/29 00:13:16;;;;;;;;;;;23.70;55.10;;;;;;6241570;23;19946;-67
2021/01/29 00:15:42;;;;;;;;;;;23.70;55.10;;;;;;6240968;23;19899;-67
2021/01/29 00:18:09;;;;;;;;;;;23.60;55.10;;;;;;6241553;23;20319;-67
2021/01/29 00:20:35;;;;;;;;;;;23.60;55.10;;;;;;6242264;23;20298;-67
2021/01/29 00:23:01;;;;;;;;;;;23.60;55.20;;;;;;6241631;23;19910;-67
2021/01/29 00:25:29;;;;;;;;;;;23.60;55.20;;;;;;6241959;23;19899;-68
2021/01/29 00:27:55;;;;;;;;;;;23.60;55.30;;;;;;6240690;23;19900;-68
2021/01/29 00:30:22;;;;;;;;;;;23.60;55.30;;;;;;6242100;23;19906;-67
2021/01/29 00:32:49;;;;;;;;;;;23.50;55.20;;;;;;6240888;23;19908;-67
2021/01/29 00:35:15;;;;;;;;;;;23.50;55.30;;;;;;6240444;23;19910;-67
2021/01/29 00:37:41;;;;;;;;;;;23.50;55.30;;;;;;6240359;23;19906;-67
2021/01/29 00:40:08;;;;;;;;;;;23.50;55.40;;;;;;6240019;23;20002;-67
2021/01/29 00:42:34;;;;;;;;;;;23.50;55.40;;;;;;6240451;23;19931;-67
2021/01/29 00:45:00;;;;;;;;;;;23.50;55.40;;;;;;6240889;23;19986;-66
2021/01/29 00:47:26;;;;;;;;;;;23.50;55.40;;;;;;6241865;23;19900;-66
2021/01/29 00:49:53;;;;;;;;;;;23.40;55.30;;;;;;6240438;23;19900;-66
2021/01/29 00:52:19;;;;;;;;;;;23.40;55.40;;;;;;6241706;23;19907;-67
2021/01/29 00:54:45;;;;;;;;;;;23.40;55.30;;;;;;6241051;23;19899;-67
2021/01/29 00:57:12;;;;;;;;;;;23.40;55.30;;;;;;6240916;23;19906;-68
2021/01/29 00:59:39;;;;;;;;;;;23.50;55.30;;;;;;6241865;23;19982;-67
2021/01/29 01:02:05;;;;;;;;;;;23.40;55.30;;;;;;6240421;23;19903;-67
2021/01/29 01:04:31;;;;;;;;;;;23.40;55.30;;;;;;6241979;23;20373;-67
2021/01/29 01:06:57;;;;;;;;;;;23.40;55.30;;;;;;6241202;23;19899;-67
2021/01/29 01:09:23;;;;;;;;;;;23.40;55.40;;;;;;6241269;23;19982;-66
2021/01/29 01:11:50;;;;;;;;;;;23.30;55.30;;;;;;6240728;23;20367;-67
2021/01/29 01:14:16;;;;;;;;;;;23.30;55.30;;;;;;6241768;23;19973;-66
2021/01/29 01:16:42;;;;;;;;;;;23.30;55.50;;;;;;6241645;23;19906;-67
2021/01/29 01:19:08;;;;;;;;;;;23.30;55.40;;;;;;6240716;23;19907;-67
2021/01/29 01:21:34;;;;;;;;;;;23.30;55.40;;;;;;6242313;23;19973;-67
2021/01/29 01:24:00;;;;;;;;;;;23.30;55.30;;;;;;6242732;23;19900;-68
2021/01/29 01:26:26;;;;;;;;;;;23.20;55.30;;;;;;6243739;23;20373;-67
2021/01/29 01:28:53;;;;;;;;;;;23.20;55.20;;;;;;6242160;23;19900;-67
2021/01/29 01:31:19;;;;;;;;;;;23.20;55.30;;;;;;6242958;23;20246;-67
2021/01/29 01:33:45;;;;;;;;;;;23.20;55.20;;;;;;6242801;23;19913;-67
2021/01/29 01:36:13;;;;;;;;;;;23.20;55.30;;;;;;6242370;23;19903;-67
2021/01/29 01:38:40;;;;;;;;;;;23.20;55.20;;;;;;6244108;23;20334;-67
2021/01/29 01:41:06;;;;;;;;;;;23.20;55.10;;;;;;6242243;23;19903;-67
2021/01/29 01:43:32;;;;;;;;;;;23.20;55.10;;;;;;6243367;23;19904;-67
2021/01/29 01:46:04;;;;;;;;;;;23.20;55.10;;;;;;6240005;23;20330;-67
2021/01/29 01:48:33;;;;;;;;;;;23.10;55.00;;;;;;6243123;23;19904;-67
2021/01/29 01:50:59;;;;;;;;;;;23.10;55.00;;;;;;6242503;23;20283;-67
2021/01/29 01:53:28;;;;;;;;;;;23.10;54.90;;;;;;6242225;23;19974;-67
2021/01/29 01:56:20;;;;;;;;;;;23.00;54.90;;;;;;6243787;23;19918;-67
2021/01/29 01:58:52;;;;;;;;;;;23.00;54.90;;;;;;6206053;23;19904;-67
2021/01/29 02:01:38;;;;;;;;;;;23.00;54.80;;;;;;6242697;23;19911;-68
2021/01/29 02:04:24;;;;;;;;;;;23.00;54.80;;;;;;6242218;23;19904;-67
2021/01/29 02:07:19;;;;;;;;;;;23.00;54.80;;;;;;6242151;23;19910;-67
2021/01/29 02:10:05;;;;;;;;;;;22.90;54.60;;;;;;6243247;23;19938;-68
2021/01/29 02:12:31;;;;;;;;;;;22.90;54.60;;;;;;6241995;23;19999;-68
2021/01/29 02:14:58;;;;;;;;;;;22.90;54.60;;;;;;6243223;23;20338;-67
2021/01/29 02:17:42;;;;;;;;;;;22.90;54.60;;;;;;6243277;23;20333;-67
2021/01/29 02:20:20;;;;;;;;;;;22.80;54.50;;;;;;6241673;23;19903;-68
2021/01/29 02:23:05;;;;;;;;;;;22.80;54.50;;;;;;6242617;23;19905;-67
2021/01/29 02:25:31;;;;;;;;;;;22.80;54.60;;;;;;6241780;23;19904;-67
2021/01/29 02:27:59;;;;;;;;;;;22.80;54.50;;;;;;6241903;23;20373;-68
2021/01/29 02:30:34;;;;;;;;;;;22.80;54.50;;;;;;6242492;23;19978;-67
2021/01/29 02:33:09;;;;;;;;;;;22.80;54.50;;;;;;6240944;23;19966;-69
2021/01/29 02:35:53;;;;;;;;;;;22.70;54.30;;;;;;6242888;23;19899;-67
2021/01/29 02:38:19;;;;;;;;;;;22.70;54.30;;;;;;6242378;23;19903;-67
2021/01/29 02:40:54;;;;;;;;;;;22.70;54.40;;;;;;6242359;23;20235;-67
2021/01/29 02:43:40;;;;;;;;;;;22.70;54.30;;;;;;6242399;23;19927;-68
2021/01/29 02:46:25;;;;;;;;;;;22.70;54.30;;;;;;6224501;23;19906;-68
2021/01/29 02:49:00;;;;;;;;;;;22.70;54.30;;;;;;6242955;23;19923;-67
2021/01/29 02:51:35;;;;;;;;;;;22.60;54.30;;;;;;6241314;23;19906;-67
2021/01/29 02:54:04;;;;;;;;;;;22.60;54.30;;;;;;6241828;23;20248;-67
2021/01/29 02:56:56;;;;;;;;;;;22.60;54.30;;;;;;6237097;23;20360;-68
2021/01/29 02:59:33;;;;;;;;;;;22.60;54.30;;;;;;6240710;23;20294;-67
2021/01/29 03:02:11;;;;;;;;;;;22.50;54.20;;;;;;6242230;23;19919;-68
2021/01/29 03:04:43;;;;;;;;;;;22.50;54.30;;;;;;6240402;23;19899;-67
2021/01/29 03:07:20;;;;;;;;;;;22.60;54.30;;;;;;6241373;23;19905;-67
2021/01/29 03:09:58;;;;;;;;;;;22.50;54.30;;;;;;6242092;23;19962;-69
2021/01/29 03:12:31;;;;;;;;;;;22.50;54.30;;;;;;6241275;23;19966;-68
2021/01/29 03:15:12;;;;;;;;;;;22.50;54.30;;;;;;6241829;23;20085;-67
2021/01/29 03:17:44;;;;;;;;;;;22.50;54.30;;;;;;6241831;23;19987;-68
2021/01/29 03:20:17;;;;;;;;;;;22.50;54.40;;;;;;6240966;23;19906;-68
2021/01/29 03:22:47;;;;;;;;;;;22.50;54.20;;;;;;6242438;23;19907;-68
2021/01/29 03:25:18;;;;;;;;;;;22.40;54.20;;;;;;6240761;23;19906;-67
2021/01/29 03:27:46;;;;;;;;;;;22.40;54.20;;;;;;6241846;23;19904;-67
2021/01/29 03:30:18;;;;;;;;;;;22.40;54.20;;;;;;6240570;23;20676;-68
2021/01/29 03:32:47;;;;;;;;;;;22.40;54.00;;;;;;6241794;23;19957;-68
2021/01/29 03:35:16;;;;;;;;;;;22.40;53.90;;;;;;6241548;23;19900;-68
2021/01/29 03:37:45;;;;;;;;;;;22.40;53.80;;;;;;6240557;23;19899;-68
2021/01/29 03:40:11;;;;;;;;;;;22.40;53.80;;;;;;6242121;23;19900;-70
2021/01/29 03:42:44;;;;;;;;;;;22.40;53.80;;;;;;6240068;23;19906;-67
2021/01/29 03:45:28;;;;;;;;;;;22.30;53.80;;;;;;6241619;23;20336;-67
2021/01/29 03:47:57;;;;;;;;;;;22.30;53.80;;;;;;6242129;23;19903;-68
2021/01/29 03:50:29;;;;;;;;;;;22.30;53.70;;;;;;6241177;23;19900;-68
2021/01/29 03:52:58;;;;;;;;;;;22.30;54.00;;;;;;6239133;23;20227;-68
2021/01/29 03:55:27;;;;;;;;;;;22.30;53.70;;;;;;6239894;23;19900;-67
2021/01/29 03:57:59;;;;;;;;;;;22.30;53.70;;;;;;6241873;23;19978;-67
2021/01/29 04:00:25;;;;;;;;;;;22.30;53.70;;;;;;6240218;23;20270;-68
2021/01/29 04:03:00;;;;;;;;;;;22.30;53.70;;;;;;6241816;23;19904;-68
2021/01/29 04:05:30;;;;;;;;;;;22.30;53.70;;;;;;6241278;23;20228;-69
2021/01/29 04:08:11;;;;;;;;;;;22.20;53.70;;;;;;6240750;23;19899;-69
2021/01/29 04:10:40;;;;;;;;;;;22.20;53.70;;;;;;6241242;23;19977;-69
2021/01/29 04:13:32;;;;;;;;;;;22.20;53.80;;;;;;6240351;23;19908;-70
2021/01/29 04:15:58;;;;;;;;;;;22.20;53.90;;;;;;6236393;23;19911;-67
2021/01/29 04:18:25;;;;;;;;;;;22.20;54.00;;;;;;6241432;23;19982;-68
2021/01/29 04:20:51;;;;;;;;;;;22.20;53.90;;;;;;6240624;23;19899;-69
2021/01/29 04:23:21;;;;;;;;;;;22.10;54.00;;;;;;6241167;23;19907;-69
2021/01/29 04:25:51;;;;;;;;;;;22.20;54.10;;;;;;6240127;23;19899;-68
2021/01/29 04:28:20;;;;;;;;;;;22.10;54.00;;;;;;6241694;23;19906;-69
2021/01/29 04:30:48;;;;;;;;;;;22.20;54.10;;;;;;6240080;23;20308;-68
2021/01/29 04:33:18;;;;;;;;;;;22.10;54.10;;;;;;6240755;23;20319;-68
2021/01/29 04:35:44;;;;;;;;;;;22.10;54.30;;;;;;6240318;23;19903;-68
2021/01/29 04:38:12;;;;;;;;;;;22.10;54.40;;;;;;6239816;23;19900;-67
2021/01/29 04:40:47;;;;;;;;;;;22.10;54.50;;;;;;6241300;23;20273;-68
2021/01/29 04:43:31;;;;;;;;;;;22.10;54.60;;;;;;6239104;23;19903;-67
2021/01/29 04:45:57;;;;;;;;;;;22.10;54.70;;;;;;6240119;23;19974;-67
2021/01/29 04:48:47;;;;;;;;;;;22.20;54.80;;;;;;6240362;23;19900;-67
2021/01/29 04:51:25;;;;;;;;;;;22.10;54.80;;;;;;6238617;23;19907;-67
2021/01/29 04:54:06;;;;;;;;;;;22.10;55.00;;;;;;6240357;23;19990;-67
2021/01/29 04:56:47;;;;;;;;;;;22.10;55.10;;;;;;6240480;23;19903;-67
2021/01/29 04:59:32;;;;;;;;;;;22.10;55.10;;;;;;6243435;23;19900;-67
2021/01/29 05:02:18;;;;;;;;;;;22.10;55.20;;;;;;6242534;23;19916;-68
2021/01/29 05:04:44;;;;;;;;;;;22.10;55.30;;;;;;6242249;23;19910;-68
2021/01/29 05:07:29;;;;;;;;;;;22.00;55.40;;;;;;6243485;23;19974;-68
2021/01/29 05:10:13;;;;;;;;;;;22.10;55.60;;;;;;6241540;23;19946;-66
2021/01/29 05:12:51;;;;;;;;;;;22.10;55.60;;;;;;6242056;23;19935;-66
2021/01/29 05:15:35;;;;;;;;;;;22.10;55.70;;;;;;6243916;23;19899;-67
2021/01/29 05:18:31;;;;;;;;;;;22.10;55.80;;;;;;6242324;23;19903;-67
2021/01/29 05:21:23;;;;;;;;;;;22.10;56.00;;;;;;6221971;23;19910;-69
2021/01/29 05:23:55;;;;;;;;;;;22.10;56.00;;;;;;6241653;23;20315;-68
2021/01/29 05:26:50;;;;;;;;;;;22.20;56.20;;;;;;6240096;23;20341;-70
2021/01/29 05:29:16;;;;;;;;;;;22.20;56.20;;;;;;6238581;23;19915;-67
2021/01/29 05:32:17;;;;;;;;;;;22.20;56.30;;;;;;6239446;23;20228;-66
2021/01/29 05:34:43;;;;;;;;;;;22.20;56.40;;;;;;6239527;23;19939;-68
2021/01/29 05:37:35;;;;;;;;;;;22.20;56.40;;;;;;6241526;23;19906;-67
2021/01/29 05:40:21;;;;;;;;;;;22.20;56.50;;;;;;6238023;23;19953;-70
2021/01/29 05:42:59;;;;;;;;;;;22.30;56.50;;;;;;6240577;23;19923;-67
2021/01/29 05:45:25;;;;;;;;;;;22.30;56.50;;;;;;6242716;23;20620;-67
2021/01/29 05:48:11;;;;;;;;;;;22.30;56.60;;;;;;6240881;23;20503;-66
2021/01/29 05:50:37;;;;;;;;;;;22.30;56.60;;;;;;6242512;23;19968;-67
2021/01/29 05:53:23;;;;;;;;;;;22.40;56.70;;;;;;6241257;23;19907;-66
2021/01/29 05:56:08;;;;;;;;;;;22.40;56.70;;;;;;6241277;23;20403;-70
2021/01/29 05:58:49;;;;;;;;;;;22.50;56.80;;;;;;6242062;23;20209;-67
2021/01/29 06:01:30;;;;;;;;;;;22.50;56.70;;;;;;6241416;23;20355;-69
2021/01/29 06:04:15;;;;;;;;;;;22.50;56.70;;;;;;6240791;23;19985;-70
2021/01/29 06:06:41;;;;;;;;;;;22.60;56.80;;;;;;6242603;23;19907;-71
2021/01/29 06:09:26;;;;;;;;;;;22.60;56.80;;;;;;6241282;23;19903;-70
2021/01/29 06:12:05;;;;;;;;;;;22.60;56.80;;;;;;6242771;23;19974;-67
2021/01/29 06:14:50;;;;;;;;;;;22.60;56.70;;;;;;6241753;23;19904;-66
2021/01/29 06:17:25;;;;;;;;;;;22.70;56.60;;;;;;6242124;23;19934;-68
2021/01/29 06:20:04;;;;;;;;;;;22.80;57.10;;;;;;6242874;23;19910;-66
2021/01/29 06:22:48;;;;;;;;;;;22.80;56.40;;;;;;6239468;23;19903;-66
2021/01/29 06:25:27;;;;;;;;;;;22.90;56.30;;;;;;6238917;23;19899;-66
2021/01/29 06:28:03;;;;;;;;;;;22.90;56.20;;;;;;6240776;23;19930;-67
2021/01/29 06:30:35;;;;;;;;;;;22.90;56.00;;;;;;6241024;23;20016;-66
2021/01/29 06:33:10;;;;;;;;;;;22.90;55.90;;;;;;6241075;23;20387;-65
2021/01/29 06:35:55;;;;;;;;;;;23.00;55.80;;;;;;6239545;23;20614;-69
2021/01/29 06:38:34;;;;;;;;;;;23.00;55.70;;;;;;6241775;23;19903;-66
2021/01/29 06:41:05;;;;;;;;;;;23.00;55.50;;;;;;6240742;23;19985;-70
2021/01/29 06:43:34;;;;;;;;;;;23.10;55.40;;;;;;6240778;23;19896;-65
2021/01/29 06:46:00;;;;;;;;;;;23.10;55.30;;;;;;6241343;23;19911;-70
2021/01/29 06:48:29;;;;;;;;;;;23.10;55.20;;;;;;6240148;23;20381;-65
2021/01/29 06:51:15;;;;;;;;;;;23.10;55.00;;;;;;6241990;23;19960;-67
2021/01/29 06:54:00;;;;;;;;;;;23.20;54.90;;;;;;6241266;23;19911;-66
2021/01/29 06:56:45;;;;;;;;;;;23.20;54.70;;;;;;6241707;23;19978;-66
2021/01/29 06:59:30;;;;;;;;;;;23.20;54.60;;;;;;6240867;23;20331;-66
2021/01/29 07:02:14;;;;;;;;;;;23.20;54.40;;;;;;6240180;23;20400;-66
2021/01/29 07:04:41;;;;;;;;;;;23.20;54.20;;;;;;6242261;23;19899;-66
2021/01/29 07:07:09;;;;;;;;;;;23.20;54.10;;;;;;6241705;23;19900;-66
2021/01/29 07:09:41;;;;;;;;;;;23.20;54.00;;;;;;6242047;23;19993;-66
2021/01/29 07:12:16;;;;;;;;;;;23.20;54.00;;;;;;6242119;23;20419;-66
2021/01/29 07:14:50;;;;;;;;;;;23.30;53.90;;;;;;6241636;23;19899;-65
2021/01/29 07:17:16;;;;;;;;;;;23.30;53.80;;;;;;6241408;23;20331;-66
2021/01/29 07:20:01;;;;;;;;;;;23.30;53.60;;;;;;6240746;23;20323;-65
2021/01/29 07:22:38;;;;;;;;;;;23.30;53.60;;;;;;6240511;23;19934;-65
2021/01/29 07:25:14;;;;;;;;;;;23.30;53.40;;;;;;6242374;23;20323;-65
2021/01/29 07:27:45;;;;;;;;;;;23.40;53.40;;;;;;6240897;23;19899;-66
2021/01/29 07:30:30;;;;;;;;;;;23.40;53.10;;;;;;6241886;23;20343;-65
2021/01/29 07:33:01;;;;;;;;;;;23.40;53.10;;;;;;6241151;23;20303;-65
2021/01/29 07:35:32;;;;;;;;;;;23.30;53.00;;;;;;6241588;23;19899;-65
2021/01/29 07:38:07;;;;;;;;;;;23.40;52.90;;;;;;6242204;23;19903;-67
2021/01/29 07:40:39;;;;;;;;;;;23.40;52.80;;;;;;6241317;23;19906;-65
2021/01/29 07:43:12;;;;;;;;;;;23.40;52.60;;;;;;6241785;23;19934;-65
2021/01/29 07:45:57;;;;;;;;;;;23.40;52.60;;;;;;6240844;23;19899;-65
2021/01/29 07:48:26;;;;;;;;;;;23.50;52.40;;;;;;6241654;23;19900;-65
2021/01/29 07:50:58;;;;;;;;;;;23.50;52.30;;;;;;6241710;23;19911;-65
2021/01/29 07:53:35;;;;;;;;;;;23.50;52.30;;;;;;6241000;23;19915;-66
2021/01/29 07:56:14;;;;;;;;;;;23.50;52.10;;;;;;6242554;23;19906;-65
2021/01/29 07:58:48;;;;;;;;;;;23.60;52.10;;;;;;6240939;23;19899;-66
2021/01/29 08:01:30;;;;;;;;;;;23.60;52.10;;;;;;6241281;23;19912;-65
2021/01/29 08:03:56;;;;;;;;;;;23.70;52.20;;;;;;6242327;23;19910;-65
2021/01/29 08:06:28;;;;;;;;;;;23.70;51.80;;;;;;6240859;23;20389;-66
2021/01/29 08:08:57;;;;;;;;;;;23.70;51.80;;;;;;6241758;23;19950;-66
2021/01/29 08:11:24;;;;;;;;;;;23.80;51.70;;;;;;6240720;23;20260;-66
2021/01/29 08:14:02;;;;;;;;;;;23.80;51.90;;;;;;6241677;23;19969;-65
2021/01/29 08:16:46;;;;;;;;;;;23.90;51.60;;;;;;6240832;23;19904;-65
2021/01/29 08:19:23;;;;;;;;;;;23.90;51.40;;;;;;6240393;23;19927;-65
2021/01/29 08:21:49;;;;;;;;;;;23.90;51.10;;;;;;6242067;23;19911;-65
2021/01/29 08:24:21;;;;;;;;;;;24.00;51.00;;;;;;6240818;23;19910;-65
2021/01/29 08:27:13;;;;;;;;;;;24.00;50.80;;;;;;6241637;23;19906;-65
2021/01/29 08:29:39;;;;;;;;;;;24.00;50.60;;;;;;6242071;23;19943;-66
2021/01/29 08:32:28;;;;;;;;;;;24.10;50.80;;;;;;6240668;23;19907;-66
2021/01/29 08:35:01;;;;;;;;;;;24.10;50.80;;;;;;6199511;23;20592;-65
2021/01/29 08:37:31;;;;;;;;;;;24.10;50.80;;;;;;6242063;23;19899;-66
2021/01/29 08:40:02;;;;;;;;;;;24.20;51.30;;;;;;6242662;23;19906;-65
2021/01/29 08:42:29;;;;;;;;;;;24.20;50.40;;;;;;6243184;23;19910;-65
2021/01/29 08:45:13;;;;;;;;;;;24.20;50.70;;;;;;6240145;23;19931;-66
2021/01/29 08:47:58;;;;;;;;;;;24.20;50.30;;;;;;6241677;23;19899;-65
2021/01/29 08:50:33;;;;;;;;;;;24.30;50.40;;;;;;6240913;23;20255;-65
2021/01/29 08:53:08;;;;;;;;;;;24.40;50.60;;;;;;6242591;23;20061;-66
2021/01/29 08:55:41;;;;;;;;;;;24.40;51.10;;;;;;6236782;23;19910;-67
2021/01/29 08:58:35;;;;;;;;;;;24.50;50.30;;;;;;6241324;23;20627;-66
2021/01/29 09:01:27;;;;;;;;;;;24.50;51.20;;;;;;6243559;23;19911;-65
2021/01/29 09:04:13;;;;;;;;;;;24.60;50.60;;;;;;6242195;23;19906;-65
2021/01/29 09:07:02;;;;;;;;;;;24.60;50.30;;;;;;6241338;23;20353;-65
2021/01/29 09:09:48;;;;;;;;;;;24.60;50.40;;;;;;6243385;23;19899;-64
2021/01/29 09:12:20;;;;;;;;;;;24.60;50.30;;;;;;6242484;23;19943;-65
2021/01/29 09:15:09;;;;;;;;;;;24.70;50.40;;;;;;6242856;23;19899;-65
2021/01/29 09:17:40;;;;;;;;;;;24.70;50.80;;;;;;6194605;23;19935;-65
2021/01/29 09:20:08;;;;;;;;;;;24.80;50.00;;;;;;6241864;23;19949;-66
2021/01/29 09:22:40;;;;;;;;;;;24.80;49.80;;;;;;6242078;23;19903;-65
2021/01/29 09:25:17;;;;;;;;;;;24.80;49.70;;;;;;6243019;23;20232;-64
2021/01/29 09:27:53;;;;;;;;;;;24.80;49.60;;;;;;6240923;23;19900;-65
2021/01/29 09:30:26;;;;;;;;;;;24.80;49.70;;;;;;6243705;23;19899;-66
2021/01/29 09:32:54;;;;;;;;;;;24.80;49.70;;;;;;6241958;23;19918;-66
2021/01/29 09:35:33;;;;;;;;;;;24.80;49.70;;;;;;6243874;23;19899;-65
2021/01/29 09:38:00;;;;;;;;;;;24.90;49.60;;;;;;6241543;23;19997;-65
2021/01/29 09:40:37;;;;;;;;;;;24.90;49.50;;;;;;6242912;23;19906;-64
2021/01/29 09:43:33;;;;;;;;;;;24.90;49.40;;;;;;6247410;23;19934;-66
2021/01/29 09:45:59;;;;;;;;;;;25.00;49.20;;;;;;6221560;23;19919;-66
2021/01/29 09:48:26;;;;;;;;;;;25.00;49.40;;;;;;6241954;23;20323;-65
2021/01/29 09:51:12;;;;;;;;;;;25.00;49.20;;;;;;6241866;23;19990;-66
2021/01/29 09:53:42;;;;;;;;;;;25.00;49.30;;;;;;6226392;23;20309;-65
2021/01/29 09:56:14;;;;;;;;;;;25.10;49.60;;;;;;6243238;23;19908;-66
2021/01/29 09:58:59;;;;;;;;;;;25.10;49.30;;;;;;6241913;23;20231;-66
2021/01/29 10:01:28;;;;;;;;;;;25.10;49.00;;;;;;6243147;23;19911;-66
2021/01/29 10:03:59;;;;;;;;;;;25.10;48.90;;;;;;6241703;23;19903;-66
2021/01/29 10:06:31;;;;;;;;;;;25.20;48.70;;;;;;6242677;23;19935;-66
2021/01/29 10:09:01;;;;;;;;;;;25.20;48.80;;;;;;6242737;23;19974;-67
2021/01/29 10:11:47;;;;;;;;;;;25.20;48.80;;;;;;6239179;23;19896;-66
2021/01/29 10:14:36;;;;;;;;;;;25.30;49.10;;;;;;6241800;23;19911;-66
2021/01/29 10:17:18;;;;;;;;;;;25.30;48.90;;;;;;6241543;23;19900;-66
2021/01/29 10:20:04;;;;;;;;;;;25.30;48.80;;;;;;6242364;23;20570;-66
2021/01/29 10:22:39;;;;;;;;;;;25.30;48.50;;;;;;6242003;23;19903;-65
2021/01/29 10:25:23;;;;;;;;;;;25.40;48.60;;;;;;6240941;23;19977;-65
2021/01/29 10:27:52;;;;;;;;;;;25.40;48.60;;;;;;6242068;23;19982;-65
2021/01/29 10:30:21;;;;;;;;;;;25.40;48.70;;;;;;6241985;23;19903;-65
2021/01/29 10:33:11;;;;;;;;;;;25.50;48.70;;;;;;6241397;23;19986;-65
2021/01/29 10:35:46;;;;;;;;;;;25.50;48.60;;;;;;6243187;23;19904;-65
2021/01/29 10:38:32;;;;;;;;;;;25.60;48.70;;;;;;6240396;23;20320;-66
2021/01/29 10:41:15;;;;;;;;;;;25.60;48.50;;;;;;6242367;23;19904;-65
2021/01/29 10:44:14;;;;;;;;;;;25.60;48.50;;;;;;6242298;23;19968;-66
2021/01/29 10:46:43;;;;;;;;;;;25.70;48.50;;;;;;6240519;23;20409;-65
2021/01/29 10:49:33;;;;;;;;;;;25.70;48.30;;;;;;6242840;23;19931;-66
2021/01/29 10:52:18;;;;;;;;;;;25.70;48.40;;;;;;6241421;23;19900;-65
2021/01/29 10:55:04;;;;;;;;;;;25.80;48.30;;;;;;6241794;23;19964;-65
2021/01/29 10:57:49;;;;;;;;;;;25.80;48.80;;;;;;6242319;23;19906;-65
2021/01/29 11:00:37;;;;;;;;;;;25.90;48.50;;;;;;6240753;23;19922;-66
2021/01/29 11:03:03;;;;;;;;;;;26.00;48.10;;;;;;6240380;23;19904;-66
2021/01/29 11:05:49;;;;;;;;;;;26.10;48.20;;;;;;6241641;23;19903;-65
2021/01/29 11:08:19;;;;;;;;;;;26.10;48.20;;;;;;6238945;22;19900;-65
2021/01/29 11:11:06;;;;;;;;;;;26.20;48.30;;;;;;6239277;23;19899;-65
2021/01/29 11:14:00;;;;;;;;;;;26.30;48.20;;;;;;6240113;23;19919;-65
2021/01/29 11:16:46;;;;;;;;;;;26.40;47.60;;;;;;6204416;23;20250;-65
2021/01/29 11:19:39;;;;;;;;;;;26.50;47.50;;;;;;6240488;23;20232;-66
2021/01/29 11:22:27;;;;;;;;;;;26.60;46.80;;;;;;6240658;23;19900;-66
2021/01/29 11:25:12;;;;;;;;;;;26.60;46.60;;;;;;6239898;23;19971;-66
2021/01/29 11:27:57;;;;;;;;;;;26.70;46.90;;;;;;6241772;23;19906;-65
2021/01/29 11:30:50;;;;;;;;;;;26.70;46.80;;;;;;6239922;23;20232;-66
2021/01/29 11:33:37;;;;;;;;;;;26.80;46.50;;;;;;6240333;23;19965;-66
2021/01/29 11:36:04;;;;;;;;;;;26.90;47.00;;;;;;6240955;23;19945;-66
2021/01/29 11:39:02;;;;;;;;;;;27.00;46.80;;;;;;6240147;23;19900;-66
2021/01/29 11:41:35;;;;;;;;;;;27.00;47.00;;;;;;6241548;23;19906;-66
2021/01/29 11:44:05;;;;;;;;;;;27.10;46.30;;;;;;6241729;23;19931;-66
2021/01/29 11:46:50;;;;;;;;;;;27.10;46.40;;;;;;6240903;23;19899;-65
2021/01/29 11:49:37;;;;;;;;;;;27.20;45.90;;;;;;6241599;23;19899;-66
2021/01/29 11:52:26;;;;;;;;;;;27.20;45.90;;;;;;6240573;23;19900;-65
2021/01/29 11:54:56;;;;;;;;;;;27.20;45.40;;;;;;6240761;23;19899;-65
2021/01/29 11:57:40;;;;;;;;;;;27.30;45.60;;;;;;6240510;23;19904;-66
2021/01/29 12:00:29;;;;;;;;;;;27.40;46.00;;;;;;5562800;23;15660317;-65
2021/01/29 12:02:56;;;;;;;;;;;27.40;45.40;;;;;;6234773;23;19904;-65
2021/01/29 12:05:22;;;;;;;;;;;27.30;46.00;;;;;;6241044;23;20342;-65
2021/01/29 12:08:06;;;;;;;;;;;27.40;45.60;;;;;;6241246;23;20340;-65
2021/01/29 12:10:50;;;;;;;;;;;27.40;45.60;;;;;;6241061;23;20327;-65
2021/01/29 12:13:36;;;;;;;;;;;27.50;45.90;;;;;;6240640;23;19908;-64
2021/01/29 12:16:22;;;;;;;;;;;27.50;45.70;;;;;;6241637;23;20341;-64
2021/01/29 12:19:08;;;;;;;;;;;27.50;45.90;;;;;;6241326;23;19946;-64
2021/01/29 12:21:57;;;;;;;;;;;27.50;45.60;;;;;;6240815;23;19904;-64
2021/01/29 12:24:35;;;;;;;;;;;27.60;46.10;;;;;;6241655;23;20259;-65
2021/01/29 12:27:21;;;;;;;;;;;27.70;45.80;;;;;;6241763;23;19900;-65
2021/01/29 12:29:47;;;;;;;;;;;27.70;45.50;;;;;;6241486;23;19958;-65
2021/01/29 12:32:24;;;;;;;;;;;27.70;45.50;;;;;;6241593;23;20280;-65
2021/01/29 12:35:16;;;;;;;;;;;27.80;45.60;;;;;;6240556;23;19939;-65
2021/01/29 12:38:01;;;;;;;;;;;27.90;45.40;;;;;;6237526;23;19903;-66
2021/01/29 12:40:47;;;;;;;;;;;27.90;45.40;;;;;;6237310;23;19899;-65
2021/01/29 12:43:31;;;;;;;;;;;27.90;45.20;;;;;;6239363;23;19899;-65
2021/01/29 12:46:20;;;;;;;;;;;28.00;45.30;;;;;;6241521;23;19900;-65
2021/01/29 12:49:10;;;;;;;;;;;28.00;45.90;;;;;;6241010;23;19899;-66
2021/01/29 12:51:59;;;;;;;;;;;28.00;45.80;;;;;;6240676;23;19896;-65
2021/01/29 12:54:52;;;;;;;;;;;28.10;45.80;;;;;;6229552;23;19972;-66
2021/01/29 12:57:38;;;;;;;;;;;28.00;46.20;;;;;;6240964;23;19979;-65
2021/01/29 13:00:32;;;;;;;;;;;27.90;46.90;;;;;;6241031;23;19911;-65
2021/01/29 13:03:20;;;;;;;;;;;28.00;46.60;;;;;;6237133;23;19904;-65
2021/01/29 13:05:46;;;;;;;;;;;28.10;46.70;;;;;;6240992;23;19900;-66
2021/01/29 13:08:12;;;;;;;;;;;28.20;46.10;;;;;;6240766;23;19950;-65
2021/01/29 13:10:38;;;;;;;;;;;28.00;46.20;;;;;;6241036;23;20334;-65
2021/01/29 13:13:07;;;;;;;;;;;28.00;46.50;;;;;;6240521;23;20061;-66
2021/01/29 13:15:42;;;;;;;;;;;28.20;46.10;;;;;;6241728;23;19899;-67
2021/01/29 13:18:14;;;;;;;;;;;28.20;45.30;;;;;;6240948;23;19899;-66
2021/01/29 13:20:43;;;;;;;;;;;28.20;45.60;;;;;;6243507;23;19908;-65
2021/01/29 13:23:20;;;;;;;;;;;28.30;45.90;;;;;;6242323;23;19900;-65
2021/01/29 13:25:54;;;;;;;;;;;28.30;45.20;;;;;;6242669;23;19982;-65
2021/01/29 13:28:20;;;;;;;;;;;28.30;45.00;;;;;;6243262;23;19900;-66
2021/01/29 13:30:46;;;;;;;;;;;28.30;44.80;;;;;;6242327;23;19899;-66
2021/01/29 13:33:12;;;;;;;;;;;28.40;45.30;;;;;;6243113;23;19908;-65
2021/01/29 13:35:40;;;;;;;;;;;28.50;44.80;;;;;;6242674;23;19899;-65
2021/01/29 13:38:08;;;;;;;;;;;28.50;44.30;;;;;;6243591;23;19899;-66
2021/01/29 13:40:35;;;;;;;;;;;28.60;44.70;;;;;;6243211;23;19899;-65
2021/01/29 13:43:09;;;;;;;;;;;28.60;44.60;;;;;;6242897;23;20219;-65
2021/01/29 13:45:35;;;;;;;;;;;28.50;44.50;;;;;;6244306;23;19899;-65
2021/01/29 13:48:04;;;;;;;;;;;28.50;44.80;;;;;;6242757;23;19899;-65
2021/01/29 13:50:42;;;;;;;;;;;28.50;44.80;;;;;;6243861;23;19899;-65
2021/01/29 13:53:28;;;;;;;;;;;28.50;44.60;;;;;;6242727;23;19907;-65
2021/01/29 13:55:54;;;;;;;;;;;28.50;44.90;;;;;;6227541;23;19899;-65
2021/01/29 13:58:32;;;;;;;;;;;28.50;44.80;;;;;;6244007;23;19900;-65
2021/01/29 14:01:01;;;;;;;;;;;28.40;45.20;;;;;;6242422;23;19915;-65
2021/01/29 14:03:27;;;;;;;;;;;28.40;45.30;;;;;;6243982;23;19914;-65
2021/01/29 14:05:53;;;;;;;;;;;28.40;45.40;;;;;;6242837;23;20266;-65
2021/01/29 14:08:19;;;;;;;;;;;28.50;45.60;;;;;;6243743;23;20006;-65
2021/01/29 14:11:05;;;;;;;;;;;28.40;45.70;;;;;;6243458;23;19910;-65
2021/01/29 14:13:39;;;;;;;;;;;28.40;45.90;;;;;;6195713;23;19907;-65
2021/01/29 14:16:17;;;;;;;;;;;28.40;46.00;;;;;;6243409;23;19899;-65
2021/01/29 14:18:49;;;;;;;;;;;28.40;46.20;;;;;;6242105;23;19904;-65
2021/01/29 14:21:19;;;;;;;;;;;28.50;46.30;;;;;;6243857;23;19904;-65
2021/01/29 14:23:51;;;;;;;;;;;28.50;46.30;;;;;;6242721;23;19996;-65
2021/01/29 14:26:26;;;;;;;;;;;28.50;46.30;;;;;;6242778;23;19945;-66
2021/01/29 14:29:21;;;;;;;;;;;28.50;46.60;;;;;;6241793;23;20379;-67
2021/01/29 14:32:00;;;;;;;;;;;28.50;46.80;;;;;;6241442;23;19953;-66
2021/01/29 14:34:29;;;;;;;;;;;28.40;47.10;;;;;;6243190;23;19907;-65
2021/01/29 14:37:25;;;;;;;;;;;28.40;47.30;;;;;;6242792;23;19900;-65
2021/01/29 14:40:09;;;;;;;;;;;28.50;47.50;;;;;;6241966;23;19899;-65
2021/01/29 14:42:54;;;;;;;;;;;28.50;47.40;;;;;;6243042;23;19969;-66
2021/01/29 14:45:40;;;;;;;;;;;28.50;47.60;;;;;;6242093;23;20224;-65
2021/01/29 14:48:06;;;;;;;;;;;28.40;47.60;;;;;;6242037;23;19903;-67
2021/01/29 14:51:07;;;;;;;;;;;28.40;47.90;;;;;;6243050;23;19918;-66
2021/01/29 14:53:36;;;;;;;;;;;28.30;47.90;;;;;;6240880;23;19914;-66
2021/01/29 14:56:22;;;;;;;;;;;28.30;48.40;;;;;;6234950;23;19906;-66
2021/01/29 14:59:08;;;;;;;;;;;28.30;48.50;;;;;;6240946;23;19899;-67
2021/01/29 15:01:54;;;;;;;;;;;28.30;48.50;;;;;;6240587;23;19973;-68
2021/01/29 15:04:43;;;;;;;;;;;28.20;48.60;;;;;;6241764;23;19910;-67
2021/01/29 15:07:29;;;;;;;;;;;28.30;48.30;;;;;;6241071;23;19900;-67